Time;durP1;ratioP1;P1;durP2;ratioP2;P2;SDS_P1;SDS_P2;PMS_P1;PMS_P2;Temp;Humidity;BMP_temperature;BMP_pressure;BME280_temperature;BME280_humidity;BME280_pressure;Samples;Min_cycle;Max_cycle;Signal;HPM_P1;HPM_P2
2022/10/20 00:01:25;;;;;;;28.77;17.70;;;12.90;77.10;;;;;;5072790;28;20058;-15
2022/10/20 00:03:52;;;;;;;28.17;17.50;;;12.90;77.30;;;;;;5072474;28;20112;-15
2022/10/20 00:06:25;;;;;;;29.85;18.60;;;12.90;77.20;;;;;;5072508;28;20019;-17
2022/10/20 00:08:52;;;;;;;36.10;20.83;;;12.90;77.30;;;;;;5072831;28;20023;-15
2022/10/20 00:11:20;;;;;;;32.13;18.80;;;12.90;77.80;;;;;;5072737;28;20029;-15
2022/10/20 00:13:48;;;;;;;37.17;19.90;;;12.80;78.00;;;;;;5074358;28;20025;-17
2022/10/20 00:16:15;;;;;;;45.58;25.95;;;12.80;78.10;;;;;;5075871;28;20032;-16
2022/10/20 00:18:41;;;;;;;31.63;17.52;;;12.80;78.30;;;;;;5075910;28;20039;-15
2022/10/20 00:21:11;;;;;;;32.90;18.58;;;12.80;78.50;;;;;;5075950;28;20066;-16
2022/10/20 00:23:37;;;;;;;28.50;17.98;;;12.80;78.60;;;;;;5075905;28;20024;-14
2022/10/20 00:26:10;;;;;;;28.17;17.38;;;12.80;78.70;;;;;;5075764;28;20045;-17
2022/10/20 00:28:36;;;;;;;30.33;18.35;;;12.90;78.70;;;;;;5076406;28;20017;-15
2022/10/20 00:31:04;;;;;;;42.03;21.90;;;12.90;79.00;;;;;;5076408;28;20036;-17
2022/10/20 00:33:30;;;;;;;34.10;19.63;;;12.90;78.80;;;;;;5075449;28;20025;-15
2022/10/20 00:36:00;;;;;;;32.97;19.70;;;12.90;79.30;;;;;;5075836;28;20050;-15
2022/10/20 00:38:26;;;;;;;28.70;16.95;;;12.90;79.10;;;;;;5075571;28;20028;-15
2022/10/20 00:40:52;;;;;;;31.38;18.77;;;12.90;78.90;;;;;;5075496;28;20031;-17
2022/10/20 00:43:20;;;;;;;36.50;21.25;;;13.00;78.90;;;;;;5075837;28;20037;-15
2022/10/20 00:45:53;;;;;;;29.38;17.25;;;13.00;79.00;;;;;;5075758;28;20028;-15
2022/10/20 00:48:27;;;;;;;29.70;17.52;;;13.00;78.80;;;;;;5075746;28;20074;-15
2022/10/20 00:50:54;;;;;;;38.45;22.40;;;13.00;78.90;;;;;;5075259;28;20111;-15
2022/10/20 00:53:23;;;;;;;31.13;18.65;;;13.10;79.30;;;;;;5075317;28;20020;-16
2022/10/20 00:55:52;;;;;;;40.65;21.95;;;13.10;79.30;;;;;;5075550;28;20094;-15
2022/10/20 00:58:18;;;;;;;33.92;19.23;;;13.10;79.00;;;;;;5075560;28;20079;-15
2022/10/20 01:00:46;;;;;;;30.30;17.80;;;13.20;79.30;;;;;;5075315;28;20052;-15
2022/10/20 01:03:21;;;;;;;39.83;22.52;;;13.30;79.10;;;;;;5075082;28;20024;-15
2022/10/20 01:05:47;;;;;;;29.70;17.05;;;13.30;78.90;;;;;;5074898;28;20111;-15
2022/10/20 01:08:13;;;;;;;28.38;16.55;;;13.40;79.00;;;;;;5075125;28;20055;-15
2022/10/20 01:10:47;;;;;;;26.60;15.93;;;13.40;78.60;;;;;;5075327;28;20029;-15
2022/10/20 01:13:24;;;;;;;28.45;15.63;;;13.40;78.50;;;;;;5075000;28;20058;-17
2022/10/20 01:16:00;;;;;;;25.58;15.07;;;13.40;78.50;;;;;;5075218;28;20035;-15
2022/10/20 01:19:08;;;;;;;30.00;16.27;;;13.40;78.20;;;;;;5075137;28;20043;-16
2022/10/20 01:22:09;;;;;;;24.70;15.50;;;13.40;78.30;;;;;;5071593;28;20025;-15
2022/10/20 01:24:47;;;;;;;29.10;16.95;;;13.30;78.30;;;;;;5074132;28;20033;-14
2022/10/20 01:27:43;;;;;;;26.83;15.88;;;13.30;78.20;;;;;;5074713;28;20489;-15
2022/10/20 01:30:14;;;;;;;23.75;14.65;;;13.20;78.10;;;;;;5074032;28;20060;-13
2022/10/20 01:33:10;;;;;;;28.58;17.55;;;13.30;78.20;;;;;;5074912;28;20028;-15
2022/10/20 01:35:37;;;;;;;35.80;21.10;;;13.20;78.50;;;;;;5074250;28;20048;-15
2022/10/20 01:38:11;;;;;;;38.72;22.20;;;13.20;78.70;;;;;;5074471;28;20056;-15
2022/10/20 01:40:48;;;;;;;31.40;18.02;;;13.20;78.60;;;;;;5074439;28;20032;-15
2022/10/20 01:43:18;;;;;;;27.30;17.55;;;13.10;78.80;;;;;;5074321;28;20020;-16
2022/10/20 01:45:48;;;;;;;25.42;15.85;;;13.00;79.10;;;;;;5073086;28;20029;-15
2022/10/20 01:48:18;;;;;;;27.85;16.38;;;13.00;79.20;;;;;;5074537;28;20502;-15
2022/10/20 01:50:45;;;;;;;28.60;16.73;;;13.00;79.20;;;;;;5074516;28;20082;-15
2022/10/20 01:53:12;;;;;;;24.52;15.07;;;12.90;79.30;;;;;;5074235;28;20021;-15
2022/10/20 01:55:39;;;;;;;25.30;15.40;;;12.90;78.90;;;;;;5074023;28;20036;-16
2022/10/20 01:58:20;;;;;;;28.92;17.98;;;12.90;79.10;;;;;;5074144;28;20074;-15
2022/10/20 02:00:50;;;;;;;34.20;19.20;;;12.90;79.10;;;;;;5073939;28;20025;-17
2022/10/20 02:03:25;;;;;;;27.98;17.88;;;12.90;79.20;;;;;;5073988;28;20024;-15
2022/10/20 02:06:21;;;;;;;25.98;15.18;;;12.80;79.30;;;;;;5073840;28;20085;-16
2022/10/20 02:08:50;;;;;;;27.77;17.38;;;12.80;79.30;;;;;;5074007;28;20050;-15
2022/10/20 02:11:36;;;;;;;23.20;14.63;;;12.80;79.60;;;;;;5073756;28;20074;-17
2022/10/20 02:14:05;;;;;;;26.80;14.27;;;12.70;79.50;;;;;;5073772;28;20534;-15
2022/10/20 02:16:39;;;;;;;27.05;16.20;;;12.80;79.20;;;;;;5073646;28;20040;-15
2022/10/20 02:19:08;;;;;;;23.92;15.48;;;12.80;79.30;;;;;;5073527;28;20024;-15
2022/10/20 02:21:34;;;;;;;23.63;15.30;;;12.70;79.30;;;;;;5073476;28;20021;-15
2022/10/20 02:24:04;;;;;;;29.13;16.80;;;12.70;79.30;;;;;;5073854;28;20028;-15
2022/10/20 02:26:32;;;;;;;26.58;15.77;;;12.80;79.40;;;;;;5072311;28;20039;-17
2022/10/20 02:29:03;;;;;;;28.35;16.33;;;12.80;79.40;;;;;;5073342;28;20040;-15
2022/10/20 02:31:30;;;;;;;23.42;14.27;;;12.80;79.30;;;;;;5073579;28;20106;-15
2022/10/20 02:33:57;;;;;;;25.23;15.13;;;12.80;79.30;;;;;;5073213;28;20052;-15
2022/10/20 02:36:28;;;;;;;19.98;11.15;;;12.80;79.30;;;;;;5072986;28;20036;-15
2022/10/20 02:38:55;;;;;;;24.95;15.10;;;12.80;79.40;;;;;;5073166;28;20082;-17
2022/10/20 02:41:21;;;;;;;24.02;14.68;;;12.70;79.40;;;;;;5073864;28;20017;-17
2022/10/20 02:43:48;;;;;;;29.17;16.92;;;12.70;79.30;;;;;;5072077;28;20031;-16
2022/10/20 02:46:15;;;;;;;29.92;17.33;;;12.80;79.60;;;;;;5073233;28;20029;-16
2022/10/20 02:48:41;;;;;;;21.77;14.43;;;12.80;79.50;;;;;;5073496;28;20035;-17
2022/10/20 02:51:07;;;;;;;25.77;14.50;;;12.80;79.40;;;;;;5073181;28;20029;-16
2022/10/20 02:53:33;;;;;;;21.60;13.30;;;12.80;79.50;;;;;;5073603;28;20488;-16
2022/10/20 02:56:00;;;;;;;25.70;16.52;;;12.80;79.30;;;;;;5073278;28;20043;-17
2022/10/20 02:58:26;;;;;;;23.70;14.77;;;12.80;79.40;;;;;;5073336;28;20024;-16
2022/10/20 03:00:52;;;;;;;23.48;14.40;;;12.80;79.40;;;;;;5072917;28;20024;-16
2022/10/20 03:03:18;;;;;;;24.73;13.32;;;12.80;79.40;;;;;;5073125;28;20035;-15
2022/10/20 03:05:45;;;;;;;21.88;13.20;;;12.80;79.30;;;;;;5072977;28;20028;-15
2022/10/20 03:08:12;;;;;;;25.20;14.38;;;12.80;79.20;;;;;;5073039;28;20060;-15
2022/10/20 03:10:40;;;;;;;22.00;14.30;;;12.90;79.30;;;;;;5073049;28;20567;-16
2022/10/20 03:13:06;;;;;;;25.55;15.02;;;12.80;79.20;;;;;;5072791;28;20039;-17
2022/10/20 03:15:32;;;;;;;22.77;13.73;;;12.90;79.20;;;;;;5072829;28;20507;-15
2022/10/20 03:17:58;;;;;;;29.73;17.65;;;12.80;79.20;;;;;;5073352;28;20108;-15
2022/10/20 03:20:24;;;;;;;25.88;15.88;;;12.80;79.70;;;;;;5073141;28;20392;-15
2022/10/20 03:22:50;;;;;;;32.92;20.25;;;12.80;79.70;;;;;;5072989;28;20476;-16
2022/10/20 03:25:16;;;;;;;26.20;15.88;;;12.80;79.50;;;;;;5072822;28;20135;-14
2022/10/20 03:27:42;;;;;;;25.30;16.40;;;12.80;79.50;;;;;;5073180;28;20024;-16
2022/10/20 03:30:08;;;;;;;25.00;14.60;;;12.80;79.60;;;;;;5072801;28;20480;-15
2022/10/20 03:32:35;;;;;;;24.02;15.57;;;12.80;80.00;;;;;;5073112;28;20031;-15
2022/10/20 03:35:01;;;;;;;30.73;18.35;;;12.70;80.10;;;;;;5072345;28;20099;-16
2022/10/20 03:37:27;;;;;;;27.00;16.52;;;12.80;80.00;;;;;;5073231;28;20511;-17
2022/10/20 03:39:53;;;;;;;30.67;18.38;;;12.80;79.90;;;;;;5073234;28;20046;-17
2022/10/20 03:42:18;;;;;;;29.67;17.23;;;12.80;79.90;;;;;;5072714;28;20032;-16
2022/10/20 03:44:44;;;;;;;32.60;18.00;;;12.80;79.90;;;;;;5073009;28;20021;-14
2022/10/20 03:47:13;;;;;;;26.85;17.05;;;12.70;79.90;;;;;;5072478;28;20472;-15
2022/10/20 03:49:39;;;;;;;27.85;17.77;;;12.70;79.90;;;;;;5074758;28;20538;-15
2022/10/20 03:52:06;;;;;;;31.48;19.55;;;12.70;79.90;;;;;;5076305;28;20025;-17
2022/10/20 03:54:35;;;;;;;31.45;20.00;;;12.70;80.10;;;;;;5076740;28;20028;-17
2022/10/20 03:57:02;;;;;;;25.38;15.70;;;12.70;80.10;;;;;;5076033;28;20060;-16
2022/10/20 03:59:27;;;;;;;20.10;13.25;;;12.60;80.30;;;;;;5076632;28;20028;-15
2022/10/20 04:01:54;;;;;;;27.00;17.15;;;12.60;80.20;;;;;;5076271;28;20365;-15
2022/10/20 04:04:20;;;;;;;31.67;19.92;;;12.60;80.30;;;;;;5076267;28;20024;-17
2022/10/20 04:06:45;;;;;;;27.38;17.98;;;12.60;80.40;;;;;;5076561;28;20027;-15
2022/10/20 04:09:11;;;;;;;30.60;18.65;;;12.50;80.30;;;;;;5076022;28;20369;-16
2022/10/20 04:11:37;;;;;;;25.00;16.35;;;12.50;80.60;;;;;;5076132;28;20498;-17
2022/10/20 04:14:03;;;;;;;25.40;15.77;;;12.50;80.50;;;;;;5076311;28;20016;-17
2022/10/20 04:16:29;;;;;;;22.15;14.85;;;12.40;80.60;;;;;;5076204;28;20456;-16
2022/10/20 04:18:55;;;;;;;23.60;15.23;;;12.40;80.60;;;;;;5075767;28;20105;-17
2022/10/20 04:21:22;;;;;;;30.05;17.75;;;12.40;80.60;;;;;;5075969;28;20095;-17
2022/10/20 04:23:47;;;;;;;24.95;14.95;;;12.40;80.70;;;;;;5075905;28;20027;-15
2022/10/20 04:26:15;;;;;;;34.33;20.60;;;12.40;80.70;;;;;;5076141;28;20021;-16
2022/10/20 04:28:42;;;;;;;26.75;15.68;;;12.30;80.70;;;;;;5076092;28;20024;-17
2022/10/20 04:31:08;;;;;;;27.42;15.80;;;12.30;80.60;;;;;;5075859;28;20036;-15
2022/10/20 04:33:34;;;;;;;30.23;17.15;;;12.20;80.60;;;;;;5075650;28;20388;-17
2022/10/20 04:36:07;;;;;;;24.13;15.02;;;12.20;80.70;;;;;;5076126;28;20032;-15
2022/10/20 04:38:33;;;;;;;27.00;16.35;;;12.20;80.80;;;;;;5075978;28;20028;-14
2022/10/20 04:41:03;;;;;;;29.83;15.15;;;12.20;80.80;;;;;;5074093;28;20020;-16
2022/10/20 04:43:30;;;;;;;26.98;14.70;;;12.20;80.70;;;;;;5075790;28;20028;-15
2022/10/20 04:46:03;;;;;;;24.33;14.85;;;12.20;80.80;;;;;;5075498;28;20024;-15
2022/10/20 04:48:29;;;;;;;21.65;14.13;;;12.20;80.70;;;;;;5076007;28;20052;-17
2022/10/20 04:51:07;;;;;;;27.00;16.55;;;12.10;80.70;;;;;;5075077;28;20027;-16
2022/10/20 04:53:33;;;;;;;25.15;16.13;;;12.10;80.70;;;;;;5075654;28;20377;-16
2022/10/20 04:55:59;;;;;;;24.02;14.30;;;12.10;80.90;;;;;;5075235;28;20081;-17
2022/10/20 04:58:25;;;;;;;27.73;17.15;;;12.10;81.00;;;;;;5075573;28;20032;-16
2022/10/20 05:00:51;;;;;;;24.40;16.23;;;12.10;81.10;;;;;;5075218;28;20021;-15
2022/10/20 05:03:23;;;;;;;29.88;18.15;;;12.00;81.00;;;;;;5075112;28;20392;-17
2022/10/20 05:05:49;;;;;;;21.90;14.35;;;12.00;81.00;;;;;;5075413;28;20096;-17
2022/10/20 05:08:15;;;;;;;21.83;14.27;;;12.00;81.10;;;;;;5075291;28;20055;-17
2022/10/20 05:10:42;;;;;;;24.27;15.55;;;11.90;81.00;;;;;;5075082;28;20086;-16
2022/10/20 05:13:08;;;;;;;24.00;14.68;;;11.90;81.00;;;;;;5074801;28;20480;-16
2022/10/20 05:15:34;;;;;;;35.20;19.65;;;11.90;81.10;;;;;;5075282;28;20028;-15
2022/10/20 05:18:00;;;;;;;24.70;14.07;;;11.90;81.20;;;;;;5075090;28;20387;-16
2022/10/20 05:20:26;;;;;;;24.33;15.48;;;11.90;81.20;;;;;;5073523;28;20029;-16
2022/10/20 05:22:52;;;;;;;25.42;15.80;;;11.90;81.30;;;;;;5074626;28;20480;-17
2022/10/20 05:25:18;;;;;;;22.90;14.40;;;11.90;81.30;;;;;;5075055;28;20031;-15
2022/10/20 05:27:44;;;;;;;28.58;15.02;;;11.90;81.30;;;;;;5074970;28;20476;-16
2022/10/20 05:30:10;;;;;;;24.10;15.13;;;11.90;81.20;;;;;;5074931;28;20029;-16
2022/10/20 05:32:36;;;;;;;24.05;15.05;;;11.90;81.30;;;;;;5074519;28;20033;-15
2022/10/20 05:35:02;;;;;;;22.45;13.75;;;11.90;81.40;;;;;;5073824;28;20052;-15
2022/10/20 05:37:28;;;;;;;21.17;13.80;;;11.90;81.30;;;;;;5075326;28;20060;-15
2022/10/20 05:39:54;;;;;;;20.40;13.30;;;11.80;81.20;;;;;;5074354;28;20137;-17
2022/10/20 05:42:20;;;;;;;22.52;14.95;;;11.90;81.10;;;;;;5074744;28;20036;-16
2022/10/20 05:44:47;;;;;;;23.15;14.60;;;11.90;81.10;;;;;;5074390;28;20020;-15
2022/10/20 05:47:12;;;;;;;31.00;18.88;;;11.90;81.20;;;;;;5074564;28;20021;-16
2022/10/20 05:49:38;;;;;;;23.85;14.85;;;11.90;81.20;;;;;;5074235;28;20488;-15
2022/10/20 05:52:04;;;;;;;26.35;14.77;;;11.90;81.30;;;;;;5074340;28;20028;-16
2022/10/20 05:54:30;;;;;;;39.65;20.55;;;11.90;81.20;;;;;;5074931;28;20119;-15
2022/10/20 05:56:56;;;;;;;25.63;14.38;;;11.90;81.20;;;;;;5074410;28;20028;-16
2022/10/20 05:59:22;;;;;;;23.60;13.23;;;11.90;81.30;;;;;;5074343;28;20082;-17
2022/10/20 06:01:48;;;;;;;23.70;13.00;;;11.90;81.20;;;;;;5074244;28;20024;-15
2022/10/20 06:04:22;;;;;;;19.60;12.93;;;11.90;81.20;;;;;;5073954;28;20027;-17
2022/10/20 06:06:49;;;;;;;27.92;16.85;;;12.00;81.30;;;;;;5073558;28;20017;-16
2022/10/20 06:09:17;;;;;;;32.35;19.88;;;12.10;81.40;;;;;;5073854;28;20111;-15
2022/10/20 06:11:43;;;;;;;30.75;18.38;;;12.20;81.40;;;;;;5073226;28;20032;-15
2022/10/20 06:14:09;;;;;;;31.38;16.67;;;12.20;81.50;;;;;;5072589;28;20117;-16
2022/10/20 06:16:36;;;;;;;29.27;17.13;;;12.30;81.60;;;;;;5073643;28;20056;-16
2022/10/20 06:19:04;;;;;;;33.72;18.05;;;12.40;81.60;;;;;;5073419;28;20028;-15
2022/10/20 06:21:32;;;;;;;24.58;15.27;;;12.50;81.70;;;;;;5073641;28;20427;-15
2022/10/20 06:24:00;;;;;;;25.98;16.45;;;12.60;81.70;;;;;;5072412;28;20025;-15
2022/10/20 06:26:28;;;;;;;24.13;15.15;;;12.80;81.80;;;;;;5073563;28;20021;-17
2022/10/20 06:28:56;;;;;;;27.33;16.77;;;12.90;81.80;;;;;;5073273;28;20433;-15
2022/10/20 06:31:24;;;;;;;25.25;15.32;;;13.10;81.80;;;;;;5073442;28;20024;-16
2022/10/20 06:33:51;;;;;;;22.67;14.32;;;13.30;81.80;;;;;;5073437;28;20040;-16
2022/10/20 06:36:19;;;;;;;23.88;14.98;;;13.50;81.70;;;;;;5073547;28;20040;-16
2022/10/20 06:38:46;;;;;;;24.67;16.25;;;13.70;81.70;;;;;;5073293;28;20042;-15
2022/10/20 06:41:15;;;;;;;22.88;14.65;;;13.90;81.50;;;;;;5073340;28;20372;-15
2022/10/20 06:43:42;;;;;;;22.63;14.48;;;14.20;81.40;;;;;;5073744;28;20028;-16
2022/10/20 06:46:12;;;;;;;23.58;15.25;;;14.40;81.20;;;;;;5073636;28;20037;-15
2022/10/20 06:48:38;;;;;;;24.42;15.23;;;14.70;80.90;;;;;;5073445;28;20114;-15
2022/10/20 06:51:09;;;;;;;27.00;18.33;;;14.90;80.60;;;;;;5073214;28;20024;-15
2022/10/20 06:53:35;;;;;;;24.85;15.02;;;15.20;80.20;;;;;;5073254;28;20090;-17
2022/10/20 06:56:12;;;;;;;29.70;18.33;;;15.40;79.80;;;;;;5073702;28;20032;-15
2022/10/20 06:58:41;;;;;;;24.85;16.00;;;15.70;79.20;;;;;;5073577;28;20035;-17
2022/10/20 07:01:14;;;;;;;26.65;14.85;;;15.90;78.80;;;;;;5072895;28;20395;-16
2022/10/20 07:03:40;;;;;;;22.25;14.02;;;16.20;78.40;;;;;;5073133;28;20052;-17
2022/10/20 07:06:09;;;;;;;21.33;13.85;;;16.40;78.00;;;;;;5073418;28;20058;-16
2022/10/20 07:08:35;;;;;;;24.55;16.60;;;16.50;77.50;;;;;;5073256;28;20103;-15
2022/10/20 07:11:07;;;;;;;22.27;14.85;;;16.60;77.20;;;;;;5072829;28;20108;-17
2022/10/20 07:13:35;;;;;;;21.15;14.13;;;16.70;76.80;;;;;;5073323;28;20036;-15
2022/10/20 07:16:02;;;;;;;21.17;14.65;;;16.80;76.50;;;;;;5072920;28;20496;-16
2022/10/20 07:18:30;;;;;;;22.77;14.98;;;16.90;76.30;;;;;;5073569;28;20028;-15
2022/10/20 07:21:02;;;;;;;21.98;14.52;;;17.00;75.80;;;;;;5072617;28;20067;-14
2022/10/20 07:23:30;;;;;;;19.52;13.60;;;17.10;75.50;;;;;;5074296;28;20576;-16
2022/10/20 07:26:03;;;;;;;22.48;15.52;;;17.20;75.50;;;;;;5077322;28;20043;-15
2022/10/20 07:28:30;;;;;;;23.52;15.85;;;17.40;75.20;;;;;;5076935;28;20480;-16
2022/10/20 07:30:58;;;;;;;21.33;13.52;;;17.60;75.00;;;;;;5076637;28;20028;-15
2022/10/20 07:33:24;;;;;;;26.00;16.77;;;17.80;74.50;;;;;;5076925;28;20479;-14
2022/10/20 07:35:50;;;;;;;24.05;15.25;;;17.90;74.20;;;;;;5076497;28;20047;-14
2022/10/20 07:38:16;;;;;;;22.98;14.43;;;18.00;74.00;;;;;;5076854;28;20020;-16
2022/10/20 07:40:42;;;;;;;30.73;18.00;;;18.00;73.80;;;;;;5075526;28;20070;-16
2022/10/20 07:43:08;;;;;;;23.90;14.75;;;18.00;73.60;;;;;;5076551;28;20099;-16
2022/10/20 07:45:34;;;;;;;25.50;15.52;;;18.00;73.50;;;;;;5075410;28;20052;-16
2022/10/20 07:48:00;;;;;;;25.27;16.00;;;18.10;73.80;;;;;;5076906;28;20020;-14
2022/10/20 07:50:27;;;;;;;23.38;14.88;;;18.20;73.40;;;;;;5076455;28;20032;-14
2022/10/20 07:52:53;;;;;;;18.75;12.50;;;18.20;73.20;;;;;;5076620;28;20029;-17
2022/10/20 07:55:19;;;;;;;30.80;17.45;;;18.30;73.10;;;;;;5076345;28;20150;-16
2022/10/20 07:57:46;;;;;;;28.17;16.42;;;18.30;73.00;;;;;;5076701;28;20047;-15
2022/10/20 08:00:13;;;;;;;24.98;15.73;;;18.40;73.20;;;;;;5076330;28;20064;-14
2022/10/20 08:02:42;;;;;;;24.52;14.50;;;18.40;73.00;;;;;;5075062;28;20025;-16
2022/10/20 08:05:09;;;;;;;22.38;14.65;;;18.50;73.00;;;;;;5076269;28;20051;-16
2022/10/20 08:07:35;;;;;;;22.02;14.50;;;18.70;72.40;;;;;;5076195;28;20033;-16
2022/10/20 08:10:01;;;;;;;21.70;14.68;;;18.90;72.40;;;;;;5076823;28;20032;-15
2022/10/20 08:12:27;;;;;;;28.50;17.52;;;19.10;72.10;;;;;;5076347;28;20021;-14
2022/10/20 08:14:53;;;;;;;27.40;15.30;;;19.30;71.60;;;;;;5076116;28;20028;-15
2022/10/20 08:17:19;;;;;;;25.50;16.08;;;19.50;70.50;;;;;;5075545;28;20028;-14
2022/10/20 08:19:45;;;;;;;24.67;17.30;;;19.60;70.40;;;;;;5075990;28;20024;-14
2022/10/20 08:22:11;;;;;;;28.90;17.38;;;19.90;70.00;;;;;;5075821;28;20031;-15
2022/10/20 08:24:38;;;;;;;23.65;15.88;;;20.10;69.50;;;;;;5075916;28;20427;-14
2022/10/20 08:27:03;;;;;;;26.58;16.25;;;20.40;68.80;;;;;;5074348;28;20024;-14
2022/10/20 08:29:29;;;;;;;23.30;14.23;;;20.60;68.60;;;;;;5075855;28;20035;-15
2022/10/20 08:31:55;;;;;;;21.27;14.13;;;20.90;67.90;;;;;;5076394;28;20027;-14
2022/10/20 08:34:21;;;;;;;21.98;15.13;;;21.20;67.20;;;;;;5074968;28;20052;-14
2022/10/20 08:36:47;;;;;;;20.90;13.40;;;21.40;66.20;;;;;;5075587;28;20021;-14
2022/10/20 08:39:13;;;;;;;20.50;14.07;;;21.70;66.20;;;;;;5076276;28;20384;-14
2022/10/20 08:41:43;;;;;;;21.67;13.68;;;21.90;64.10;;;;;;5075913;28;20537;-14
2022/10/20 08:44:21;;;;;;;19.45;13.35;;;22.00;64.10;;;;;;5075918;28;20025;-14
2022/10/20 08:46:47;;;;;;;20.30;12.75;;;22.20;62.30;;;;;;5075514;28;20052;-16
2022/10/20 08:49:21;;;;;;;19.33;12.77;;;22.20;61.80;;;;;;5075420;28;20052;-14
2022/10/20 08:51:48;;;;;;;19.42;12.88;;;22.20;59.20;;;;;;5075536;28;20506;-13
2022/10/20 08:54:15;;;;;;;19.38;12.35;;;22.20;60.40;;;;;;5075711;28;20031;-14
2022/10/20 08:56:43;;;;;;;16.27;12.15;;;22.30;60.70;;;;;;5075561;28;20033;-14
2022/10/20 08:59:33;;;;;;;18.23;11.48;;;22.30;59.70;;;;;;5075312;28;20024;-13
2022/10/20 09:02:01;;;;;;;18.38;12.05;;;22.40;58.10;;;;;;5075305;28;20082;-13
2022/10/20 09:05:03;;;;;;;15.77;11.20;;;22.40;60.10;;;;;;5075669;28;20023;-14
2022/10/20 09:07:33;;;;;;;16.95;11.60;;;22.50;58.90;;;;;;5053118;28;20029;-14
2022/10/20 09:10:16;;;;;;;16.45;11.55;;;22.60;60.20;;;;;;5053064;28;20029;-14
2022/10/20 09:12:45;;;;;;;18.93;11.57;;;22.70;59.10;;;;;;5053299;28;20071;-14
2022/10/20 09:15:13;;;;;;;16.25;11.50;;;22.60;59.30;;;;;;5052673;28;20037;-13
2022/10/20 09:17:49;;;;;;;17.83;12.13;;;22.60;58.50;;;;;;5052822;28;20067;-13
2022/10/20 09:20:23;;;;;;;19.23;11.88;;;22.70;59.50;;;;;;5052774;28;20025;-15
2022/10/20 09:22:50;;;;;;;16.42;11.40;;;22.80;59.40;;;;;;5052750;28;20037;-15
2022/10/20 09:25:22;;;;;;;16.75;10.13;;;22.90;59.00;;;;;;5052752;28;20032;-13
2022/10/20 09:27:51;;;;;;;14.95;10.82;;;23.30;58.50;;;;;;5053289;28;20439;-14
2022/10/20 09:30:21;;;;;;;16.35;10.82;;;23.50;58.00;;;;;;5052836;28;20408;-14
2022/10/20 09:32:48;;;;;;;15.00;10.85;;;23.90;57.30;;;;;;5052313;28;20025;-16
2022/10/20 09:35:14;;;;;;;14.02;9.82;;;24.10;56.80;;;;;;5052274;28;20045;-13
2022/10/20 09:37:43;;;;;;;17.05;11.45;;;24.40;56.00;;;;;;5052335;28;20035;-14
2022/10/20 09:40:17;;;;;;;16.88;12.13;;;24.60;55.10;;;;;;5035727;28;20025;-14
2022/10/20 09:43:14;;;;;;;16.83;11.48;;;24.80;53.30;;;;;;5074371;28;20020;-14
2022/10/20 09:45:52;;;;;;;17.70;11.57;;;24.80;54.70;;;;;;5073186;28;20048;-14
2022/10/20 09:48:26;;;;;;;16.63;12.52;;;25.00;54.40;;;;;;5074635;28;20021;-14
2022/10/20 09:50:55;;;;;;;20.30;11.93;;;25.10;54.20;;;;;;5074267;28;20024;-15
2022/10/20 09:53:48;;;;;;;19.08;12.45;;;25.30;54.30;;;;;;5074171;28;20100;-15
2022/10/20 09:56:26;;;;;;;19.90;12.80;;;25.50;54.20;;;;;;5071184;28;20123;-14
2022/10/20 09:58:53;;;;;;;19.63;13.30;;;25.60;54.10;;;;;;5073940;28;20496;-14
2022/10/20 10:01:20;;;;;;;21.42;13.73;;;25.70;54.20;;;;;;5074006;28;20077;-14
2022/10/20 10:03:48;;;;;;;20.25;13.48;;;25.90;54.10;;;;;;5074489;28;20023;-14
2022/10/20 10:06:31;;;;;;;18.30;12.32;;;25.90;52.80;;;;;;5074145;28;20115;-13
2022/10/20 10:09:00;;;;;;;18.30;12.35;;;26.00;52.60;;;;;;5073700;28;20400;-14
2022/10/20 10:11:34;;;;;;;20.17;13.52;;;26.30;53.10;;;;;;5073846;28;20035;-13
2022/10/20 10:14:02;;;;;;;18.58;12.95;;;26.60;52.10;;;;;;5074215;28;20024;-12
2022/10/20 10:16:40;;;;;;;16.67;12.10;;;26.80;52.00;;;;;;5073974;28;20036;-13
2022/10/20 10:19:06;;;;;;;21.02;13.50;;;26.70;51.40;;;;;;5073903;28;20071;-15
2022/10/20 10:21:50;;;;;;;18.50;12.82;;;26.90;51.30;;;;;;5073519;28;20031;-15
2022/10/20 10:24:47;;;;;;;15.57;12.60;;;26.90;49.90;;;;;;5073643;28;20025;-14
2022/10/20 10:27:25;;;;;;;18.70;12.55;;;26.80;50.40;;;;;;5035036;28;20090;-14
2022/10/20 10:30:15;;;;;;;19.98;13.32;;;26.80;51.80;;;;;;5052111;28;20492;-14
2022/10/20 10:32:45;;;;;;;19.20;14.05;;;26.50;51.80;;;;;;5051982;28;20025;-14
2022/10/20 10:35:40;;;;;;;18.27;12.35;;;25.80;52.60;;;;;;5050958;28;20435;-15
2022/10/20 10:38:11;;;;;;;14.73;11.48;;;25.80;53.20;;;;;;5048374;28;20052;-14
2022/10/20 10:40:54;;;;;;;17.70;13.02;;;26.00;53.80;;;;;;5031572;28;20511;-14
2022/10/20 10:43:32;;;;;;;20.98;13.88;;;26.50;51.30;;;;;;5031989;28;20029;-14
2022/10/20 10:46:07;;;;;;;21.23;15.73;;;26.90;51.60;;;;;;5031699;28;20060;-14
2022/10/20 10:48:45;;;;;;;18.45;14.05;;;27.30;51.00;;;;;;5031483;28;20556;-14
2022/10/20 10:51:50;;;;;;;15.75;12.52;;;27.60;49.60;;;;;;5031033;28;20033;-14
2022/10/20 10:54:30;;;;;;;20.27;14.25;;;28.10;49.30;;;;;;4983977;28;20037;-14
2022/10/20 10:57:15;;;;;;;17.95;12.18;;;28.60;47.70;;;;;;5030722;28;20022;-14
2022/10/20 10:59:43;;;;;;;19.05;13.02;;;28.90;46.90;;;;;;5031865;28;20564;-14
2022/10/20 11:02:21;;;;;;;16.60;12.45;;;29.20;45.00;;;;;;5031141;28;20435;-14
2022/10/20 11:05:17;;;;;;;16.10;12.00;;;29.20;44.90;;;;;;5052835;28;20032;-15
2022/10/20 11:08:10;;;;;;;16.27;10.55;;;29.10;45.50;;;;;;5053072;28;20025;-13
2022/10/20 11:10:41;;;;;;;14.23;10.18;;;28.90;46.40;;;;;;5053110;28;20555;-13
2022/10/20 11:13:19;;;;;;;14.68;10.82;;;28.70;46.90;;;;;;5052822;28;20495;-13
2022/10/20 11:15:57;;;;;;;15.05;11.35;;;28.70;46.30;;;;;;5052878;28;20036;-13
2022/10/20 11:19:11;;;;;;;16.63;11.50;;;28.90;45.40;;;;;;5053150;28;20025;-13
2022/10/20 11:21:52;;;;;;;14.93;10.20;;;29.40;45.20;;;;;;5036428;28;20033;-14
2022/10/20 11:24:57;;;;;;;14.43;9.68;;;29.70;44.80;;;;;;5053180;28;20028;-14
2022/10/20 11:27:32;;;;;;;18.15;13.57;;;30.20;43.90;;;;;;5053245;28;20179;-13
2022/10/20 11:30:15;;;;;;;17.77;12.85;;;30.10;42.00;;;;;;5053188;28;20017;-14
2022/10/20 11:33:14;;;;;;;17.55;13.77;;;29.70;44.10;;;;;;5052854;28;20106;-14
2022/10/20 11:36:05;;;;;;;17.50;11.98;;;29.30;44.10;;;;;;5052462;28;20129;-13
2022/10/20 11:38:43;;;;;;;14.18;10.38;;;28.90;44.30;;;;;;5053008;28;20052;-13
2022/10/20 11:41:29;;;;;;;18.48;13.98;;;28.90;45.70;;;;;;5052636;28;20017;-14
2022/10/20 11:44:01;;;;;;;16.33;12.85;;;29.00;44.30;;;;;;5052751;28;20021;-14
2022/10/20 11:46:37;;;;;;;20.83;13.35;;;29.20;45.70;;;;;;5052693;28;20104;-14
2022/10/20 11:49:04;;;;;;;15.05;12.05;;;29.10;45.10;;;;;;5053347;28;20021;-14
2022/10/20 11:51:29;;;;;;;14.00;9.90;;;28.90;45.50;;;;;;5051311;28;20033;-13
2022/10/20 11:54:23;;;;;;;13.15;9.98;;;28.80;45.80;;;;;;5052883;28;20104;-13
2022/10/20 11:57:14;;;;;;;15.43;9.68;;;28.90;45.80;;;;;;5052286;28;20484;-13
2022/10/20 12:00:12;;;;;;;13.20;10.70;;;29.00;45.10;;;;;;5052634;28;20029;-14
2022/10/20 12:03:20;;;;;;;13.90;9.70;;;29.20;43.70;;;;;;5051334;28;20049;-13
2022/10/20 12:06:00;;;;;;;12.90;9.55;;;29.40;42.10;;;;;;5042501;28;20578;-14
2022/10/20 12:08:51;;;;;;;12.00;9.05;;;29.70;43.90;;;;;;5052727;28;20040;-14
2022/10/20 12:11:27;;;;;;;11.93;9.02;;;30.00;42.80;;;;;;5056091;28;20025;-14
2022/10/20 12:14:24;;;;;;;10.85;8.35;;;30.20;43.30;;;;;;5056537;28;20021;-13
2022/10/20 12:16:53;;;;;;;9.73;7.65;;;30.40;42.60;;;;;;5056129;28;20033;-14
2022/10/20 12:19:24;;;;;;;12.18;8.48;;;30.40;42.50;;;;;;5056549;28;20512;-14
2022/10/20 12:22:00;;;;;;;11.60;8.13;;;30.40;42.10;;;;;;5056249;28;20473;-16
2022/10/20 12:24:53;;;;;;;14.25;9.40;;;30.60;41.80;;;;;;5054775;28;20028;-15
2022/10/20 12:27:26;;;;;;;14.43;10.35;;;30.80;40.20;;;;;;5055856;28;20040;-14
2022/10/20 12:30:03;;;;;;;9.85;8.18;;;31.00;40.20;;;;;;5055806;28;20040;-14
2022/10/20 12:32:38;;;;;;;19.75;11.27;;;31.10;40.00;;;;;;5055823;28;20021;-14
2022/10/20 12:35:10;;;;;;;13.88;9.10;;;31.30;38.00;;;;;;5055513;28;20095;-13
2022/10/20 12:37:37;;;;;;;11.70;8.85;;;31.50;38.10;;;;;;5055816;28;20106;-13
2022/10/20 12:40:06;;;;;;;11.82;8.60;;;31.70;38.40;;;;;;5055942;28;20025;-14
2022/10/20 12:42:54;;;;;;;15.85;9.90;;;31.90;38.50;;;;;;5055803;28;20032;-14
2022/10/20 12:45:23;;;;;;;15.38;10.13;;;31.90;38.20;;;;;;5055650;28;20013;-14
2022/10/20 12:47:53;;;;;;;11.65;9.00;;;31.70;38.20;;;;;;5055455;28;20087;-14
2022/10/20 12:50:43;;;;;;;16.45;10.45;;;31.30;38.60;;;;;;5055799;28;20524;-14